Time,TemperatureF,DewpointF,PressureIn,WindDirection,WindDirectionDegrees,WindSpeedMPH,WindSpeedGustMPH,Humidity,HourlyPrecipIn,Conditions,Clouds,dailyrainin,SoftwareType,DateUTC
2013-03-16 00:10:00,61.8,35.0,30.04,NE,56,0.0,-999.0,37,-99.99,,,0.00,weatherlink.com 1.10,2013-03-16 07:10:00,
2013-03-16 00:25:00,61.5,35.0,30.03,East,92,5.0,-999.0,37,-99.99,,,0.00,weatherlink.com 1.10,2013-03-16 07:25:00,
2013-03-16 00:40:00,62.2,35.0,30.04,NE,38,0.0,-999.0,37,-99.99,,,0.00,weatherlink.com 1.10,2013-03-16 07:40:00,
2013-03-16 00:55:00,60.9,36.0,30.04,North,10,5.0,-999.0,39,-99.99,,,0.00,weatherlink.com 1.10,2013-03-16 07:55:00,
2013-03-16 01:10:00,60.3,35.0,30.03,North,355,4.0,-999.0,39,-99.99,,,0.00,weatherlink.com 1.10,2013-03-16 08:10:00,
2013-03-16 01:25:00,60.1,33.0,30.04,North,360,0.0,-999.0,36,-99.99,,,0.00,weatherlink.com 1.10,2013-03-16 08:25:00,
2013-03-16 01:40:00,59.8,32.0,30.03,NNE,28,0.0,-999.0,35,-99.99,,,0.00,weatherlink.com 1.10,2013-03-16 08:40:00,
2013-03-16 01:55:00,59.8,29.0,30.03,NNE,20,0.0,-999.0,31,-99.99,,,0.00,weatherlink.com 1.10,2013-03-16 08:55:00,
2013-03-16 02:10:00,59.7,30.0,30.03,NE,46,0.0,-999.0,33,-99.99,,,0.00,weatherlink.com 1.10,2013-03-16 09:10:00,
2013-03-16 02:25:00,60.2,30.0,30.03,NE,37,0.0,-999.0,32,-99.99,,,0.00,weatherlink.com 1.10,2013-03-16 09:25:00,
2013-03-16 02:40:00,60.3,28.0,30.02,NE,37,0.0,-999.0,29,-99.99,,,0.00,weatherlink.com 1.10,2013-03-16 09:40:00,
2013-03-16 02:55:00,60.2,26.0,30.02,NE,37,0.0,-999.0,27,-99.99,,,0.00,weatherlink.com 1.10,2013-03-16 09:55:00,
2013-03-16 03:10:00,60.2,30.0,30.02,NE,37,0.0,-999.0,32,-99.99,,,0.00,weatherlink.com 1.10,2013-03-16 10:10:00,
2013-03-16 03:25:00,60.5,31.0,30.02,NE,37,0.0,-999.0,33,-99.99,,,0.00,weatherlink.com 1.10,2013-03-16 10:25:00,
2013-03-16 03:40:00,60.6,26.0,30.01,NE,46,0.0,-999.0,27,-99.99,,,0.00,weatherlink.com 1.10,2013-03-16 10:40:00,
2013-03-16 03:55:00,61.0,26.0,30.00,ENE,77,0.0,-999.0,26,-99.99,,,0.00,weatherlink.com 1.10,2013-03-16 10:55:00,
2013-03-16 04:10:00,60.8,28.0,30.00,ENE,62,2.0,-999.0,29,-99.99,,,0.00,weatherlink.com 1.10,2013-03-16 11:10:00,
2013-03-16 04:25:00,60.1,29.0,30.00,NE,38,0.0,-999.0,31,-99.99,,,0.00,weatherlink.com 1.10,2013-03-16 11:25:00,
2013-03-16 04:40:00,60.5,28.0,30.00,NNE,33,0.0,-999.0,29,-99.99,,,0.00,weatherlink.com 1.10,2013-03-16 11:40:00,
2013-03-16 04:55:00,61.1,28.0,30.00,NE,40,0.0,-999.0,28,-99.99,,,0.00,weatherlink.com 1.10,2013-03-16 11:55:00,
2013-03-16 05:10:00,61.9,26.0,30.00,NE,46,0.0,-999.0,26,-99.99,,,0.00,weatherlink.com 1.10,2013-03-16 12:10:00,
2013-03-16 05:25:00,61.6,27.0,30.00,ENE,58,0.0,-999.0,27,-99.99,,,0.00,weatherlink.com 1.10,2013-03-16 12:25:00,
2013-03-16 05:40:00,60.9,25.0,30.00,NE,37,0.0,-999.0,25,-99.99,,,0.00,weatherlink.com 1.10,2013-03-16 12:40:00,
2013-03-16 05:55:00,60.9,25.0,30.00,NNE,25,0.0,-999.0,25,-99.99,,,0.00,weatherlink.com 1.10,2013-03-16 12:55:00,
2013-03-16 06:10:00,61.2,25.0,29.99,North,5,0.0,-999.0,25,-99.99,,,0.00,weatherlink.com 1.10,2013-03-16 13:10:00,
2013-03-16 06:25:00,61.7,24.0,29.99,NE,47,0.0,-999.0,24,-99.99,,,0.00,weatherlink.com 1.10,2013-03-16 13:25:00,
2013-03-16 06:40:00,61.5,26.0,30.00,North,5,0.0,-999.0,26,-99.99,,,0.00,weatherlink.com 1.10,2013-03-16 13:40:00,
2013-03-16 06:55:00,60.8,26.0,30.00,North,5,0.0,-999.0,27,-99.99,,,0.00,weatherlink.com 1.10,2013-03-16 13:55:00,
2013-03-16 07:10:00,60.2,26.0,30.00,NNE,29,0.0,-999.0,27,-99.99,,,0.00,weatherlink.com 1.10,2013-03-16 14:10:00,
2013-03-16 07:25:00,59.8,27.0,30.01,NNE,29,0.0,-999.0,29,-99.99,,,0.00,weatherlink.com 1.10,2013-03-16 14:25:00,
2013-03-16 07:40:00,59.8,26.0,30.01,NE,41,0.0,-999.0,27,-99.99,,,0.00,weatherlink.com 1.10,2013-03-16 14:40:00,
2013-03-16 07:55:00,60.6,26.0,30.02,NE,49,0.0,-999.0,27,-99.99,,,0.00,weatherlink.com 1.10,2013-03-16 14:55:00,
2013-03-16 08:10:00,61.8,27.0,30.02,NE,55,0.0,-999.0,27,-99.99,,,0.00,weatherlink.com 1.10,2013-03-16 15:10:00,
2013-03-16 08:25:00,62.0,27.0,30.03,ENE,60,0.0,-999.0,26,-99.99,,,0.00,weatherlink.com 1.10,2013-03-16 15:25:00,
2013-03-16 08:40:00,62.6,31.0,30.04,ENE,65,0.0,-999.0,30,-99.99,,,0.00,weatherlink.com 1.10,2013-03-16 15:40:00,
2013-03-16 08:55:00,63.4,35.0,30.04,ENE,57,0.0,-999.0,35,-99.99,,,0.00,weatherlink.com 1.10,2013-03-16 15:55:00,
2013-03-16 09:10:00,63.7,26.0,30.05,ENE,58,0.0,-999.0,24,-99.99,,,0.00,weatherlink.com 1.10,2013-03-16 16:10:00,
2013-03-16 09:25:00,64.7,36.0,30.05,NNE,32,0.0,-999.0,34,-99.99,,,0.00,weatherlink.com 1.10,2013-03-16 16:25:00,
2013-03-16 09:40:00,64.4,33.0,30.06,West,260,0.0,-999.0,31,-99.99,,,0.00,weatherlink.com 1.10,2013-03-16 16:40:00,
2013-03-16 09:56:00,66.5,30.0,30.07,West,260,0.0,-999.0,26,-99.99,,,0.00,weatherlink.com 1.10,2013-03-16 16:56:00,
2013-03-16 10:11:00,66.2,34.0,30.07,SSE,160,0.0,-999.0,30,-99.99,,,0.00,weatherlink.com 1.10,2013-03-16 17:11:00,
2013-03-16 10:26:00,66.7,36.0,30.07,SSE,148,0.0,-999.0,32,-99.99,,,0.00,weatherlink.com 1.10,2013-03-16 17:26:00,
2013-03-16 10:41:00,68.3,40.0,30.06,ENE,78,1.0,-999.0,35,-99.99,,,0.00,weatherlink.com 1.10,2013-03-16 17:41:00,
2013-03-16 10:56:00,67.4,36.0,30.06,SE,134,0.0,-999.0,31,-99.99,,,0.00,weatherlink.com 1.10,2013-03-16 17:56:00,
2013-03-16 11:11:00,68.2,36.0,30.06,SE,142,0.0,-999.0,31,-99.99,,,0.00,weatherlink.com 1.10,2013-03-16 18:11:00,
2013-03-16 11:26:00,68.5,39.0,30.06,ESE,113,0.0,-999.0,34,-99.99,,,0.00,weatherlink.com 1.10,2013-03-16 18:26:00,
2013-03-16 11:41:00,68.3,38.0,30.06,WSW,255,0.0,-999.0,33,-99.99,,,0.00,weatherlink.com 1.10,2013-03-16 18:41:00,
2013-03-16 11:56:00,67.0,40.0,30.07,SW,223,0.0,-999.0,38,-99.99,,,0.00,weatherlink.com 1.10,2013-03-16 18:56:00,
2013-03-16 12:11:00,68.3,40.0,30.07,SSW,206,0.0,-999.0,35,-99.99,,,0.00,weatherlink.com 1.10,2013-03-16 19:11:00,
2013-03-16 12:26:00,69.0,44.0,30.05,ESE,115,2.0,-999.0,41,-99.99,,,0.00,weatherlink.com 1.10,2013-03-16 19:26:00,
2013-03-16 12:41:00,69.9,42.0,30.05,ESE,102,0.0,-999.0,37,-99.99,,,0.00,weatherlink.com 1.10,2013-03-16 19:41:00,
2013-03-16 12:56:00,69.7,49.0,30.06,WSW,237,0.0,-999.0,48,-99.99,,,0.00,weatherlink.com 1.10,2013-03-16 19:56:00,
2013-03-16 13:11:00,71.0,48.0,30.06,SW,230,1.0,-999.0,44,-99.99,,,0.00,weatherlink.com 1.10,2013-03-16 20:11:00,
2013-03-16 13:26:00,70.2,43.0,30.06,WSW,250,2.0,-999.0,38,-99.99,,,0.00,weatherlink.com 1.10,2013-03-16 20:26:00,
2013-03-16 13:41:00,69.6,43.0,30.06,WSW,252,0.0,-999.0,38,-99.99,,,0.00,weatherlink.com 1.10,2013-03-16 20:41:00,
2013-03-16 13:56:00,70.0,46.0,30.05,West,261,0.0,-999.0,43,-99.99,,,0.00,weatherlink.com 1.10,2013-03-16 20:56:00,
2013-03-16 14:11:00,70.6,45.0,30.04,WSW,250,0.0,-999.0,40,-99.99,,,0.00,weatherlink.com 1.10,2013-03-16 21:11:00,
2013-03-16 14:26:00,67.3,43.0,30.04,WSW,255,0.0,-999.0,41,-99.99,,,0.00,weatherlink.com 1.10,2013-03-16 21:26:00,
2013-03-16 14:41:00,71.8,44.0,30.03,East,87,0.0,-999.0,37,-99.99,,,0.00,weatherlink.com 1.10,2013-03-16 21:41:00,
2013-03-16 14:56:00,69.8,47.0,30.03,WSW,252,0.0,-999.0,45,-99.99,,,0.00,weatherlink.com 1.10,2013-03-16 21:56:00,
2013-03-16 15:11:00,71.1,48.0,30.03,WSW,250,0.0,-999.0,44,-99.99,,,0.00,weatherlink.com 1.10,2013-03-16 22:11:00,
2013-03-16 15:40:00,73.4,48.0,30.03,WSW,240,0.0,-999.0,41,-99.99,,,0.00,weatherlink.com 1.10,2013-03-16 22:40:00,
2013-03-16 15:55:00,75.3,40.0,30.03,WSW,255,1.0,-999.0,28,-99.99,,,0.00,weatherlink.com 1.10,2013-03-16 22:55:00,
2013-03-16 16:10:00,74.9,40.0,30.03,SW,218,4.0,-999.0,28,-99.99,,,0.00,weatherlink.com 1.10,2013-03-16 23:10:00,
2013-03-16 16:25:00,74.3,39.0,30.03,West,263,3.0,-999.0,28,-99.99,,,0.00,weatherlink.com 1.10,2013-03-16 23:25:00,
2013-03-16 16:40:00,74.0,37.0,30.03,West,263,0.0,-999.0,26,-99.99,,,0.00,weatherlink.com 1.10,2013-03-16 23:40:00,
2013-03-16 16:55:00,74.6,32.0,30.03,ENE,65,0.0,-999.0,21,-99.99,,,0.00,weatherlink.com 1.10,2013-03-16 23:55:00,
2013-03-16 17:10:00,73.1,36.0,30.03,West,276,0.0,-999.0,26,-99.99,,,0.00,weatherlink.com 1.10,2013-03-17 00:10:00,
2013-03-16 17:25:00,72.2,40.0,30.03,West,259,2.0,-999.0,31,-99.99,,,0.00,weatherlink.com 1.10,2013-03-17 00:25:00,
2013-03-16 17:40:00,71.9,33.0,30.03,WSW,246,1.0,-999.0,24,-99.99,,,0.00,weatherlink.com 1.10,2013-03-17 00:40:00,
2013-03-16 17:55:00,70.4,31.0,30.03,NNW,340,0.0,-999.0,23,-99.99,,,0.00,weatherlink.com 1.10,2013-03-17 00:55:00,
2013-03-16 18:10:00,68.8,29.0,30.03,West,272,0.0,-999.0,23,-99.99,,,0.00,weatherlink.com 1.10,2013-03-17 01:10:00,
2013-03-16 18:25:00,67.9,26.0,30.03,ESE,113,1.0,-999.0,21,-99.99,,,0.00,weatherlink.com 1.10,2013-03-17 01:25:00,
2013-03-16 18:40:00,66.8,28.0,30.03,North,355,3.0,-999.0,23,-99.99,,,0.00,weatherlink.com 1.10,2013-03-17 01:40:00,
2013-03-16 18:55:00,65.9,26.0,30.04,NNW,348,4.0,-999.0,22,-99.99,,,0.00,weatherlink.com 1.10,2013-03-17 01:55:00,
2013-03-16 19:10:00,65.5,26.0,30.04,ENE,61,7.0,-999.0,22,-99.99,,,0.00,weatherlink.com 1.10,2013-03-17 02:10:00,
2013-03-16 19:25:00,65.1,25.0,30.04,NNW,342,0.0,-999.0,22,-99.99,,,0.00,weatherlink.com 1.10,2013-03-17 02:25:00,
2013-03-16 19:40:00,65.0,26.0,30.04,North,360,17.0,-999.0,23,-99.99,,,0.00,weatherlink.com 1.10,2013-03-17 02:40:00,
2013-03-16 19:55:00,64.7,26.0,30.04,NW,314,0.0,-999.0,23,-99.99,,,0.00,weatherlink.com 1.10,2013-03-17 02:55:00,
2013-03-16 20:10:00,64.2,25.0,30.04,North,10,5.0,-999.0,23,-99.99,,,0.00,weatherlink.com 1.10,2013-03-17 03:10:00,
2013-03-16 20:25:00,63.7,26.0,30.04,NNE,29,0.0,-999.0,24,-99.99,,,0.00,weatherlink.com 1.10,2013-03-17 03:25:00,
2013-03-16 20:40:00,63.1,27.0,30.05,East,97,0.0,-999.0,25,-99.99,,,0.00,weatherlink.com 1.10,2013-03-17 03:40:00,
2013-03-16 20:55:00,62.6,28.0,30.06,WSW,254,0.0,-999.0,27,-99.99,,,0.00,weatherlink.com 1.10,2013-03-17 03:55:00,
2013-03-16 21:10:00,62.2,27.0,30.06,NW,311,0.0,-999.0,26,-99.99,,,0.00,weatherlink.com 1.10,2013-03-17 04:10:00,
2013-03-16 21:25:00,61.6,26.0,30.06,SE,125,0.0,-999.0,26,-99.99,,,0.00,weatherlink.com 1.10,2013-03-17 04:25:00,
2013-03-16 21:40:00,61.2,26.0,30.07,NE,38,0.0,-999.0,26,-99.99,,,0.00,weatherlink.com 1.10,2013-03-17 04:40:00,
2013-03-16 21:55:00,60.7,25.0,30.07,East,94,0.0,-999.0,26,-99.99,,,0.00,weatherlink.com 1.10,2013-03-17 04:55:00,
2013-03-16 22:10:00,60.5,23.0,30.08,East,79,0.0,-999.0,24,-99.99,,,0.00,weatherlink.com 1.10,2013-03-17 05:10:00,
2013-03-16 22:25:00,60.8,23.0,30.08,ESE,117,0.0,-999.0,23,-99.99,,,0.00,weatherlink.com 1.10,2013-03-17 05:25:00,
2013-03-16 22:40:00,60.9,22.0,30.08,ENE,57,0.0,-999.0,22,-99.99,,,0.00,weatherlink.com 1.10,2013-03-17 05:40:00,
2013-03-16 22:55:00,60.6,21.0,30.08,SSE,151,0.0,-999.0,22,-99.99,,,0.00,weatherlink.com 1.10,2013-03-17 05:55:00,
2013-03-16 23:10:00,61.3,21.0,30.07,ENE,62,0.0,-999.0,21,-99.99,,,0.00,weatherlink.com 1.10,2013-03-17 06:10:00,
2013-03-16 23:25:00,62.0,24.0,30.07,NNE,24,3.0,-999.0,23,-99.99,,,0.00,weatherlink.com 1.10,2013-03-17 06:25:00,
2013-03-16 23:40:00,62.3,25.0,30.07,NNE,26,5.0,-999.0,24,-99.99,,,0.00,weatherlink.com 1.10,2013-03-17 06:40:00,
2013-03-16 23:55:00,61.5,27.0,30.07,North,351,6.0,-999.0,27,-99.99,,,0.00,weatherlink.com 1.10,2013-03-17 06:55:00,